Time;durP1;ratioP1;P1;durP2;ratioP2;P2;SDS_P1;SDS_P2;PMS_P1;PMS_P2;Temp;Humidity;BMP_temperature;BMP_pressure;BME280_temperature;BME280_humidity;BME280_pressure;Samples;Min_cycle;Max_cycle;Signal;HPM_P1;HPM_P2
2023/12/23 00:01:10;;;;;;;11.93;2.28;;;;;;;5.97;100.00;100911.81;5083083;28;20021;-68
2023/12/23 00:03:35;;;;;;;14.30;2.50;;;;;;;6.00;100.00;100912.81;5065879;28;20032;-68
2023/12/23 00:06:00;;;;;;;14.80;2.50;;;;;;;6.02;100.00;100923.34;5081545;28;20021;-69
2023/12/23 00:08:26;;;;;;;13.75;2.50;;;;;;;6.03;100.00;100938.22;5084848;28;20031;-68
2023/12/23 00:10:51;;;;;;;13.82;2.38;;;;;;;6.01;100.00;100916.31;5081484;28;20049;-69
2023/12/23 00:13:17;;;;;;;13.52;2.50;;;;;;;6.01;100.00;100900.56;5083760;28;20036;-69
2023/12/23 00:15:42;;;;;;;15.18;2.85;;;;;;;6.13;100.00;100908.75;5082771;28;20032;-68
2023/12/23 00:18:07;;;;;;;13.93;2.58;;;;;;;6.14;100.00;100914.88;5082268;28;20567;-70
2023/12/23 00:20:33;;;;;;;18.00;2.97;;;;;;;6.11;100.00;100919.19;5084282;28;20462;-70
2023/12/23 00:22:59;;;;;;;14.27;2.90;;;;;;;6.14;100.00;100914.88;5081346;28;20033;-69
2023/12/23 00:25:24;;;;;;;16.83;3.17;;;;;;;6.24;100.00;100907.25;5081258;28;20017;-74
2023/12/23 00:27:50;;;;;;;17.33;3.30;;;;;;;6.15;100.00;100891.28;5084057;28;20028;-75
2023/12/23 00:30:15;;;;;;;16.23;3.40;;;;;;;6.17;100.00;100883.44;5082265;28;20028;-71
2023/12/23 00:32:41;;;;;;;15.68;3.17;;;;;;;6.15;100.00;100896.53;5082547;28;20099;-75
2023/12/23 00:35:07;;;;;;;18.10;3.33;;;;;;;6.19;100.00;100893.13;5065680;28;20063;-74
2023/12/23 00:37:33;;;;;;;15.65;3.47;;;;;;;6.21;100.00;100896.69;5081323;28;20025;-75
2023/12/23 00:39:58;;;;;;;17.73;3.75;;;;;;;6.25;100.00;100893.28;5084278;28;20036;-73
2023/12/23 00:42:23;;;;;;;17.98;3.58;;;;;;;6.28;100.00;100888.09;5081171;28;20497;-74
2023/12/23 00:44:49;;;;;;;19.63;3.90;;;;;;;6.27;100.00;100891.56;5083494;28;20656;-74
2023/12/23 00:47:14;;;;;;;18.70;4.05;;;;;;;6.32;100.00;100885.53;5082417;28;20036;-75
2023/12/23 00:49:40;;;;;;;18.30;3.70;;;;;;;6.57;100.00;100871.22;5082368;28;20138;-75
2023/12/23 00:52:06;;;;;;;19.02;3.53;;;;;;;6.80;100.00;100879.53;5065355;28;20093;-75
2023/12/23 00:54:31;;;;;;;17.15;3.92;;;;;;;6.93;100.00;100863.19;5080941;28;20036;-72
2023/12/23 00:56:57;;;;;;;21.33;4.00;;;;;;;7.22;100.00;100869.84;5084127;28;20028;-74
2023/12/23 00:59:22;;;;;;;19.67;3.50;;;;;;;7.41;100.00;100871.97;5081101;28;20025;-74
2023/12/23 01:01:48;;;;;;;18.58;3.60;;;;;;;7.54;100.00;100857.25;5084697;28;20028;-74
2023/12/23 01:04:13;;;;;;;18.15;3.50;;;;;;;7.64;100.00;100851.28;5086418;28;20478;-70
2023/12/23 01:06:38;;;;;;;20.75;3.60;;;;;;;7.78;100.00;100840.13;5085913;28;20379;-69
2023/12/23 01:09:04;;;;;;;19.92;3.72;;;;;;;7.88;100.00;100847.28;5069573;28;20148;-69
2023/12/23 01:11:30;;;;;;;18.48;3.70;;;;;;;7.95;100.00;100862.31;5066722;28;20028;-71
2023/12/23 01:13:55;;;;;;;18.85;3.70;;;;;;;8.01;100.00;100817.66;5088121;28;20060;-68
2023/12/23 01:16:20;;;;;;;20.58;3.97;;;;;;;8.05;100.00;100844.03;5085637;28;20559;-69
2023/12/23 01:18:46;;;;;;;19.25;3.53;;;;;;;8.10;100.00;100831.81;5086611;28;20384;-70
2023/12/23 01:21:11;;;;;;;20.70;3.90;;;;;;;8.03;100.00;100831.72;5086692;28;20028;-68
2023/12/23 01:23:36;;;;;;;19.95;3.63;;;;;;;8.12;100.00;100825.69;5085401;28;20020;-68
2023/12/23 01:26:02;;;;;;;19.27;3.30;;;;;;;8.10;100.00;100827.44;5087831;28;20020;-68
2023/12/23 01:28:27;;;;;;;15.98;3.10;;;;;;;8.11;100.00;100829.22;5084513;28;20029;-70
2023/12/23 01:30:53;;;;;;;19.38;3.10;;;;;;;8.11;100.00;100820.41;5087450;28;20115;-69
2023/12/23 01:33:18;;;;;;;19.27;3.30;;;;;;;8.14;100.00;100818.72;5085144;28;20020;-69
2023/12/23 01:35:43;;;;;;;19.77;3.70;;;;;;;8.10;100.00;100816.03;5086352;28;20040;-69
2023/12/23 01:38:09;;;;;;;18.52;3.50;;;;;;;8.20;100.00;100824.06;5086446;28;20024;-70
2023/12/23 01:40:35;;;;;;;19.67;3.15;;;;;;;8.24;100.00;100795.13;5066602;28;20123;-70
2023/12/23 01:43:00;;;;;;;18.90;3.25;;;;;;;8.22;100.00;100810.03;5087675;28;20066;-69
2023/12/23 01:45:26;;;;;;;18.40;3.40;;;;;;;8.25;100.00;100807.44;5084082;28;20060;-69
2023/12/23 01:47:54;;;;;;;20.50;3.55;;;;;;;8.16;100.00;100810.84;5086846;28;20024;-69
2023/12/23 01:50:21;;;;;;;19.70;3.80;;;;;;;8.12;100.00;100815.16;5084953;28;20407;-69
2023/12/23 01:52:48;;;;;;;19.23;3.20;;;;;;;8.29;100.00;100814.53;5086282;28;20478;-69
2023/12/23 01:55:13;;;;;;;19.25;3.78;;;;;;;8.30;100.00;100830.34;5085359;28;20517;-70
2023/12/23 01:57:40;;;;;;;20.80;3.80;;;;;;;8.30;100.00;100811.00;5085001;28;20036;-68
2023/12/23 02:00:07;;;;;;;17.88;3.40;;;;;;;8.33;100.00;100803.13;5086450;28;20028;-68
2023/12/23 02:02:38;;;;;;;17.02;3.08;;;;;;;8.27;100.00;100803.97;5065845;28;20502;-75
2023/12/23 02:05:04;;;;;;;20.02;3.67;;;;;;;8.22;100.00;100808.28;5086925;28;20024;-74
2023/12/23 02:07:30;;;;;;;19.58;3.85;;;;;;;7.91;100.00;100810.50;5083595;28;20028;-75
2023/12/23 02:09:56;;;;;;;19.13;3.78;;;;;;;7.81;100.00;100806.81;5086883;28;20051;-75
2023/12/23 02:12:34;;;;;;;18.80;3.53;;;;;;;7.78;100.00;100808.53;5083739;28;20036;-75
2023/12/23 02:15:09;;;;;;;19.10;4.03;;;;;;;7.73;100.00;100810.19;5083713;28;20078;-74
2023/12/23 02:17:35;;;;;;;18.48;3.47;;;;;;;7.66;100.00;100810.13;5083906;28;20067;-74
2023/12/23 02:20:00;;;;;;;17.67;3.42;;;;;;;7.67;100.00;100805.72;5086974;28;20058;-75
2023/12/23 02:22:26;;;;;;;21.30;4.05;;;;;;;7.55;100.00;100798.53;5083520;28;20476;-74
2023/12/23 02:24:51;;;;;;;19.27;3.50;;;;;;;7.58;100.00;100801.19;5068240;28;20036;-73
2023/12/23 02:27:22;;;;;;;21.25;3.85;;;;;;;7.55;100.00;100813.44;5066634;28;20470;-75
2023/12/23 02:29:48;;;;;;;20.80;3.70;;;;;;;7.55;100.00;100802.91;5085664;28;20029;-75
2023/12/23 02:32:15;;;;;;;20.45;3.78;;;;;;;7.55;100.00;100816.94;5084791;28;20347;-75
2023/12/23 02:34:41;;;;;;;20.02;4.13;;;;;;;7.61;100.00;100814.41;5084417;28;20035;-75
2023/12/23 02:37:06;;;;;;;19.92;3.75;;;;;;;7.65;100.00;100816.22;5085903;28;20378;-74
2023/12/23 02:39:32;;;;;;;18.77;3.63;;;;;;;7.60;100.00;100794.25;5065043;28;20037;-74
2023/12/23 02:41:57;;;;;;;19.70;3.92;;;;;;;7.65;100.00;100797.81;5068419;28;20039;-74
2023/12/23 02:44:23;;;;;;;21.95;3.80;;;;;;;7.60;100.00;100782.81;5083437;28;20035;-71
2023/12/23 02:46:48;;;;;;;18.25;3.45;;;;;;;7.69;100.00;100790.88;5085306;28;20032;-70
2023/12/23 02:49:14;;;;;;;21.65;3.90;;;;;;;7.63;100.00;100799.53;5066443;28;20182;-75
2023/12/23 02:51:39;;;;;;;21.20;3.80;;;;;;;7.67;100.00;100787.31;5084112;28;20489;-74
2023/12/23 02:54:04;;;;;;;21.65;4.20;;;;;;;7.68;100.00;100771.53;5085645;28;20043;-74
2023/12/23 02:56:30;;;;;;;23.65;3.72;;;;;;;7.74;100.00;100767.25;5082634;28;20017;-74
2023/12/23 02:58:56;;;;;;;23.65;3.80;;;;;;;7.77;100.00;100780.44;5086891;28;20039;-75
2023/12/23 03:01:21;;;;;;;20.48;3.50;;;;;;;7.85;100.00;100765.66;5083236;28;20032;-74
2023/12/23 03:03:47;;;;;;;15.82;3.28;;;;;;;7.90;100.00;100758.69;5085133;28;20484;-75
2023/12/23 03:06:15;;;;;;;17.75;3.47;;;;;;;7.86;100.00;100770.03;5084448;28;20140;-71
2023/12/23 03:08:41;;;;;;;18.00;3.55;;;;;;;7.89;100.00;100770.09;5083480;28;20028;-72
2023/12/23 03:11:07;;;;;;;19.33;3.63;;;;;;;7.92;100.00;100748.19;5085245;28;20035;-72
2023/12/23 03:13:33;;;;;;;18.33;3.58;;;;;;;7.97;100.00;100734.22;5082499;28;20034;-74
2023/12/23 03:15:58;;;;;;;19.95;3.40;;;;;;;8.13;100.00;100747.59;5085765;28;20115;-74
2023/12/23 03:18:23;;;;;;;17.67;3.03;;;;;;;8.20;100.00;100750.31;5082813;28;20032;-70
2023/12/23 03:20:50;;;;;;;19.33;3.70;;;;;;;8.22;100.00;100747.72;5084562;28;20025;-70
2023/12/23 03:23:16;;;;;;;17.70;2.97;;;;;;;8.24;100.00;100735.44;5083589;28;20028;-69
2023/12/23 03:25:41;;;;;;;19.63;3.50;;;;;;;8.28;100.00;100741.63;5082763;28;20086;-69
2023/12/23 03:28:06;;;;;;;18.80;3.22;;;;;;;8.33;100.00;100740.84;5084835;28;20035;-69
2023/12/23 03:30:32;;;;;;;19.25;3.58;;;;;;;8.35;100.00;100748.75;5081988;28;20036;-71
2023/12/23 03:32:57;;;;;;;21.10;3.75;;;;;;;8.27;100.00;100751.28;5085629;28;20073;-68
2023/12/23 03:35:22;;;;;;;19.88;3.55;;;;;;;8.24;100.00;100737.19;5064410;28;20032;-69
2023/12/23 03:37:47;;;;;;;18.85;3.63;;;;;;;8.12;100.00;100740.56;5084050;28;20024;-69
2023/12/23 03:40:13;;;;;;;18.52;3.58;;;;;;;8.05;100.00;100750.13;5083948;28;20036;-68
2023/12/23 03:42:40;;;;;;;17.80;3.50;;;;;;;8.10;100.00;100727.38;5082663;28;20032;-70
2023/12/23 03:45:07;;;;;;;19.85;3.42;;;;;;;8.14;100.00;100729.19;5084650;28;20024;-71
2023/12/23 03:47:33;;;;;;;19.63;3.88;;;;;;;8.13;100.00;100751.09;5082055;28;20078;-70
2023/12/23 03:49:58;;;;;;;19.50;3.63;;;;;;;8.19;100.00;100732.75;5085183;28;20027;-70
2023/12/23 03:52:23;;;;;;;17.50;3.95;;;;;;;8.29;100.00;100733.75;5082202;28;20471;-69
2023/12/23 03:54:49;;;;;;;18.85;3.97;;;;;;;8.30;100.00;100726.72;5084067;28;20403;-69
2023/12/23 03:57:14;;;;;;;18.63;3.88;;;;;;;8.29;100.00;100720.59;5083121;28;20032;-69
2023/12/23 03:59:40;;;;;;;19.67;3.78;;;;;;;8.27;100.00;100747.75;5082929;28;20040;-69
2023/12/23 04:02:05;;;;;;;19.75;3.70;;;;;;;8.34;100.00;100736.44;5084414;28;20069;-69
2023/12/23 04:04:32;;;;;;;20.48;3.72;;;;;;;8.28;100.00;100710.91;5081437;28;20037;-69
2023/12/23 04:06:57;;;;;;;19.02;4.00;;;;;;;8.29;100.00;100728.47;5081540;28;20092;-69
2023/12/23 04:09:23;;;;;;;19.40;4.00;;;;;;;8.27;100.00;100740.75;5084045;28;20130;-69
2023/12/23 04:11:48;;;;;;;18.45;4.10;;;;;;;8.32;100.00;100710.06;5082497;28;20488;-70
2023/12/23 04:14:14;;;;;;;20.15;4.18;;;;;;;8.34;100.00;100720.63;5083212;28;20032;-75
2023/12/23 04:16:39;;;;;;;20.63;4.50;;;;;;;8.30;100.00;100713.56;5083660;28;20095;-75
2023/12/23 04:19:05;;;;;;;18.67;3.92;;;;;;;8.24;100.00;100724.03;5081463;28;20024;-75
2023/12/23 04:21:30;;;;;;;19.88;4.13;;;;;;;8.26;100.00;100703.88;5066763;28;20028;-75
2023/12/23 04:23:56;;;;;;;16.83;3.50;;;;;;;8.29;100.00;100702.16;5081201;28;20121;-74
2023/12/23 04:26:21;;;;;;;19.50;3.90;;;;;;;8.25;100.00;100702.97;5084008;28;20083;-75
2023/12/23 04:28:47;;;;;;;17.75;3.80;;;;;;;8.19;100.00;100714.31;5064570;28;20543;-75
2023/12/23 04:31:12;;;;;;;18.83;3.65;;;;;;;8.14;100.00;100707.22;5060336;28;20029;-75
2023/12/23 04:33:38;;;;;;;20.42;4.10;;;;;;;8.17;100.00;100696.75;5083844;28;20020;-76
2023/12/23 04:36:03;;;;;;;20.65;4.00;;;;;;;8.20;100.00;100680.97;5080681;28;20036;-75
2023/12/23 04:38:29;;;;;;;18.35;3.33;;;;;;;8.23;100.00;100675.75;5084677;28;20028;-75
2023/12/23 04:40:54;;;;;;;21.27;4.00;;;;;;;8.18;100.00;100675.69;5081513;28;20033;-75
2023/12/23 04:43:19;;;;;;;15.55;3.20;;;;;;;8.29;100.00;100649.47;5083177;28;20027;-75
2023/12/23 04:45:45;;;;;;;18.83;3.50;;;;;;;8.23;100.00;100688.91;5082496;28;20119;-75
2023/12/23 04:48:10;;;;;;;17.30;3.10;;;;;;;8.21;100.00;100672.19;5082017;28;20024;-69
2023/12/23 04:50:36;;;;;;;15.50;3.00;;;;;;;8.22;100.00;100673.09;5083706;28;20032;-70
2023/12/23 04:53:01;;;;;;;19.67;3.40;;;;;;;8.19;100.00;100666.91;5080798;28;20036;-72
2023/12/23 04:55:27;;;;;;;20.58;3.58;;;;;;;8.13;100.00;100658.94;5066183;28;20036;-75
2023/12/23 04:57:52;;;;;;;17.98;3.50;;;;;;;8.10;100.00;100672.09;5081370;28;20119;-75
2023/12/23 05:00:18;;;;;;;16.80;3.30;;;;;;;8.13;100.00;100663.34;5083014;28;20029;-75
2023/12/23 05:02:43;;;;;;;18.58;3.42;;;;;;;8.11;100.00;100663.34;5064756;28;20161;-75
2023/12/23 05:05:09;;;;;;;19.88;3.95;;;;;;;8.10;100.00;100666.81;5081561;28;20476;-75
2023/12/23 05:07:34;;;;;;;19.75;3.20;;;;;;;8.24;100.00;100666.97;5084236;28;20047;-71
2023/12/23 05:10:00;;;;;;;18.48;3.50;;;;;;;8.27;100.00;100677.56;5080769;28;20124;-75
2023/12/23 05:12:25;;;;;;;18.10;3.50;;;;;;;8.25;100.00;100667.88;5083785;28;20028;-75
2023/12/23 05:14:51;;;;;;;18.13;3.20;;;;;;;8.17;100.00;100659.88;5081575;28;20067;-75
2023/12/23 05:17:17;;;;;;;19.17;3.60;;;;;;;8.02;100.00;100679.00;5082631;28;20025;-73
2023/12/23 05:19:42;;;;;;;17.50;3.55;;;;;;;8.02;100.00;100648.31;5082919;28;20031;-70
2023/12/23 05:22:08;;;;;;;17.67;3.35;;;;;;;8.09;100.00;100661.53;5081326;28;20376;-69
2023/12/23 05:24:36;;;;;;;17.73;3.55;;;;;;;8.10;100.00;100690.53;5083868;28;20048;-69
2023/12/23 05:27:01;;;;;;;19.90;3.60;;;;;;;8.12;100.00;100658.94;5062427;28;20037;-70
2023/12/23 05:29:27;;;;;;;18.55;3.53;;;;;;;8.27;100.00;100656.50;5083913;28;20053;-69
2023/12/23 05:31:52;;;;;;;20.25;3.88;;;;;;;8.20;100.00;100655.53;5081187;28;20060;-69
2023/12/23 05:34:17;;;;;;;18.13;3.42;;;;;;;8.31;100.00;100658.25;5082268;28;20040;-69
2023/12/23 05:36:43;;;;;;;19.38;3.83;;;;;;;8.30;100.00;100640.72;5082913;28;20028;-69
2023/12/23 05:39:10;;;;;;;16.70;3.72;;;;;;;8.34;100.00;100663.59;5063015;28;20025;-68
2023/12/23 05:41:35;;;;;;;18.58;3.72;;;;;;;8.33;100.00;100643.38;5083529;28;20162;-70
2023/12/23 05:44:01;;;;;;;21.35;4.05;;;;;;;8.42;100.00;100645.22;5080519;28;20109;-70
2023/12/23 05:46:26;;;;;;;18.30;3.60;;;;;;;8.46;100.00;100620.72;5083417;28;20032;-69
2023/12/23 05:48:51;;;;;;;17.98;3.38;;;;;;;8.54;100.00;100637.44;5084196;28;20024;-69
2023/12/23 05:51:17;;;;;;;19.10;3.50;;;;;;;8.57;100.00;100628.69;5086013;28;20333;-70
2023/12/23 05:53:42;;;;;;;21.17;4.03;;;;;;;8.58;100.00;100669.09;5086340;28;20543;-70
2023/12/23 05:56:08;;;;;;;18.55;3.90;;;;;;;8.67;100.00;100658.66;5084449;28;20036;-70
2023/12/23 05:58:33;;;;;;;18.15;3.33;;;;;;;8.70;100.00;100637.59;5087489;28;20035;-68
2023/12/23 06:00:59;;;;;;;16.15;3.40;;;;;;;8.57;100.00;100647.16;5065760;28;20024;-69
2023/12/23 06:03:25;;;;;;;18.70;3.50;;;;;;;8.63;100.00;100627.88;5086882;28;20082;-69
2023/12/23 06:05:50;;;;;;;18.13;3.30;;;;;;;8.59;100.00;100658.59;5084804;28;20028;-69
2023/12/23 06:08:16;;;;;;;18.42;3.40;;;;;;;8.50;100.00;100647.94;5085289;28;20102;-69
2023/12/23 06:10:41;;;;;;;19.75;3.97;;;;;;;8.55;100.00;100664.69;5085955;28;20456;-70
2023/12/23 06:13:06;;;;;;;16.85;3.58;;;;;;;8.57;100.00;100647.16;5083924;28;20158;-69
2023/12/23 06:15:32;;;;;;;19.48;3.97;;;;;;;8.51;100.00;100649.72;5086875;28;20028;-70
2023/12/23 06:17:57;;;;;;;18.70;4.00;;;;;;;8.50;100.00;100637.41;5083752;28;20471;-68
2023/12/23 06:20:23;;;;;;;17.95;3.28;;;;;;;8.66;100.00;100615.59;5067954;28;20170;-69
2023/12/23 06:22:48;;;;;;;20.67;3.85;;;;;;;8.57;100.00;100630.47;5066848;28;20032;-68
2023/12/23 06:25:13;;;;;;;19.02;3.70;;;;;;;8.66;100.00;100633.16;5084892;28;20025;-69
2023/12/23 06:27:39;;;;;;;22.25;4.30;;;;;;;8.58;100.00;100646.28;5086053;28;20512;-68
2023/12/23 06:30:04;;;;;;;22.52;4.13;;;;;;;8.62;100.00;100650.72;5083473;28;20103;-71
2023/12/23 06:32:30;;;;;;;19.00;3.72;;;;;;;8.59;100.00;100616.44;5086663;28;20440;-71
2023/12/23 06:34:55;;;;;;;20.15;3.88;;;;;;;8.62;100.00;100648.09;5083455;28;20093;-69
2023/12/23 06:37:20;;;;;;;19.40;3.90;;;;;;;8.62;100.00;100621.72;5085650;28;20025;-68
2023/12/23 06:39:46;;;;;;;16.95;3.60;;;;;;;8.68;100.00;100656.03;5084823;28;20020;-68
2023/12/23 06:42:11;;;;;;;20.00;3.70;;;;;;;8.65;100.00;100645.47;5084010;28;20029;-75
2023/12/23 06:44:36;;;;;;;19.60;3.80;;;;;;;8.60;100.00;100636.63;5086280;28;20485;-75
2023/12/23 06:47:02;;;;;;;18.63;3.95;;;;;;;8.58;100.00;100643.66;5083021;28;20091;-75
2023/12/23 06:49:28;;;;;;;20.48;3.58;;;;;;;8.55;100.00;100633.09;5086146;28;20042;-75
2023/12/23 06:51:54;;;;;;;19.60;4.25;;;;;;;8.57;100.00;100628.69;5084044;28;20036;-71
2023/12/23 06:54:19;;;;;;;20.23;3.88;;;;;;;8.55;100.00;100626.06;5084757;28;20486;-71
2023/12/23 06:56:44;;;;;;;21.08;3.90;;;;;;;8.59;100.00;100645.44;5084682;28;20089;-75
2023/12/23 06:59:12;;;;;;;18.65;3.67;;;;;;;8.58;100.00;100635.75;5083818;28;20031;-77
2023/12/23 07:01:39;;;;;;;18.75;3.50;;;;;;;8.62;100.00;100627.00;5068026;28;20031;-76
2023/12/23 07:04:08;;;;;;;19.83;3.45;;;;;;;8.58;100.00;100622.56;5082737;28;20135;-76
2023/12/23 07:06:33;;;;;;;21.58;3.70;;;;;;;8.60;100.00;100628.72;5086207;28;20035;-76
2023/12/23 07:08:59;;;;;;;20.73;3.80;;;;;;;8.69;100.00;100631.47;5064848;28;20032;-77
2023/12/23 07:11:24;;;;;;;21.85;4.07;;;;;;;8.68;100.00;100629.69;5084920;28;20051;-77
2023/12/23 07:13:51;;;;;;;18.67;3.53;;;;;;;8.67;100.00;100634.94;5083755;28;20036;-77
2023/12/23 07:16:17;;;;;;;20.25;3.72;;;;;;;8.69;100.00;100618.28;5084357;28;20442;-76
2023/12/23 07:18:42;;;;;;;19.67;3.38;;;;;;;8.74;100.00;100607.78;5084641;28;20028;-77
2023/12/23 07:21:08;;;;;;;20.25;3.20;;;;;;;8.87;100.00;100633.34;5082951;28;20128;-69
2023/12/23 07:23:33;;;;;;;17.88;3.25;;;;;;;8.86;100.00;100604.34;5085704;28;20032;-68
2023/12/23 07:25:58;;;;;;;18.23;3.50;;;;;;;8.89;100.00;100622.81;5082454;28;20060;-69
2023/12/23 07:28:24;;;;;;;18.38;3.40;;;;;;;8.91;100.00;100647.44;5084814;28;20071;-69
2023/12/23 07:30:49;;;;;;;18.38;3.20;;;;;;;8.89;100.00;100620.19;5083390;28;20028;-70
2023/12/23 07:33:14;;;;;;;17.40;3.65;;;;;;;8.97;100.00;100634.31;5083675;28;20032;-69
2023/12/23 07:35:40;;;;;;;19.52;3.40;;;;;;;9.01;100.00;100651.94;5084438;28;20113;-70
2023/12/23 07:38:05;;;;;;;18.45;3.47;;;;;;;9.00;100.00;100644.88;5082030;28;20056;-71
2023/12/23 07:40:31;;;;;;;14.80;3.28;;;;;;;9.05;100.00;100632.59;5085585;28;20020;-68
2023/12/23 07:42:57;;;;;;;18.52;3.20;;;;;;;9.11;100.00;100658.13;5082084;28;20107;-68
2023/12/23 07:45:23;;;;;;;16.65;3.00;;;;;;;9.17;100.00;100650.25;5084009;28;20081;-69
2023/12/23 07:47:49;;;;;;;17.13;3.28;;;;;;;9.12;100.00;100656.41;5083402;28;20044;-69
2023/12/23 07:50:14;;;;;;;16.95;3.03;;;;;;;9.14;100.00;100647.59;5082982;28;20040;-69
2023/12/23 07:52:40;;;;;;;18.05;3.03;;;;;;;9.03;100.00;100634.34;5084403;28;20463;-70
2023/12/23 07:55:06;;;;;;;18.23;3.20;;;;;;;9.06;100.00;100638.78;5081606;28;20039;-70
2023/12/23 07:57:32;;;;;;;16.88;3.28;;;;;;;9.15;100.00;100623.00;5084954;28;20051;-68
2023/12/23 07:59:57;;;;;;;19.23;3.40;;;;;;;9.06;100.00;100615.91;5082130;28;20396;-69
2023/12/23 08:02:23;;;;;;;16.48;3.00;;;;;;;9.17;100.00;100630.94;5084191;28;20029;-67
2023/12/23 08:04:48;;;;;;;17.30;3.15;;;;;;;9.20;100.00;100652.94;5083027;28;20028;-67
2023/12/23 08:07:15;;;;;;;18.08;3.42;;;;;;;9.22;100.00;100623.94;5082775;28;20048;-69
2023/12/23 08:09:40;;;;;;;19.80;3.25;;;;;;;9.20;100.00;100626.56;5066183;28;20077;-69
2023/12/23 08:12:07;;;;;;;16.38;2.95;;;;;;;9.21;100.00;100632.72;5081152;28;20487;-69
2023/12/23 08:14:32;;;;;;;15.10;3.00;;;;;;;9.23;100.00;100636.25;5084889;28;20028;-69
2023/12/23 08:16:58;;;;;;;17.80;3.00;;;;;;;9.23;100.00;100658.25;5081517;28;20025;-69
2023/12/23 08:19:23;;;;;;;16.27;2.92;;;;;;;9.26;100.00;100649.44;5083668;28;20069;-69
2023/12/23 08:21:48;;;;;;;17.42;2.92;;;;;;;9.31;100.00;100647.72;5082676;28;20062;-68
2023/12/23 08:24:14;;;;;;;14.65;2.78;;;;;;;9.34;100.00;100652.16;5082360;28;20040;-76
2023/12/23 08:26:39;;;;;;;17.05;3.20;;;;;;;9.32;100.00;100651.25;5084110;28;20020;-75
2023/12/23 08:29:05;;;;;;;18.50;3.20;;;;;;;9.30;100.00;100651.22;5081164;28;20060;-76
2023/12/23 08:31:30;;;;;;;18.85;3.38;;;;;;;9.25;100.00;100640.66;5084486;28;20039;-75
2023/12/23 08:33:56;;;;;;;15.02;2.75;;;;;;;9.32;100.00;100638.94;5063375;28;20037;-73
2023/12/23 08:36:21;;;;;;;17.25;3.03;;;;;;;9.34;100.00;100649.50;5083873;28;20025;-75
2023/12/23 08:38:48;;;;;;;16.30;2.88;;;;;;;9.38;100.00;100654.81;5082776;28;20031;-75
2023/12/23 08:41:14;;;;;;;11.85;2.70;;;;;;;9.45;100.00;100662.75;5082222;28;20391;-75
2023/12/23 08:43:39;;;;;;;15.30;2.85;;;;;;;9.47;100.00;100638.16;5084152;28;20028;-74
2023/12/23 08:46:05;;;;;;;16.48;3.10;;;;;;;9.37;100.00;100713.72;5063049;28;20028;-76
2023/12/23 08:48:30;;;;;;;18.02;3.08;;;;;;;9.33;100.00;100659.16;5080930;28;20540;-71
2023/12/23 08:50:56;;;;;;;19.33;3.28;;;;;;;9.36;100.00;100606.44;5083833;28;20028;-77
2023/12/23 08:53:21;;;;;;;15.65;2.88;;;;;;;9.43;100.00;100636.38;5063970;28;20024;-75
2023/12/23 08:55:46;;;;;;;16.98;3.20;;;;;;;9.28;100.00;100665.31;5082264;28;20032;-76
2023/12/23 08:58:13;;;;;;;16.80;3.20;;;;;;;9.16;100.00;100655.53;5065212;28;20111;-73
2023/12/23 09:00:39;;;;;;;17.00;3.45;;;;;;;9.10;100.00;100687.13;5081186;28;20028;-69
2023/12/23 09:03:04;;;;;;;16.92;3.25;;;;;;;9.10;100.00;100697.69;5084325;28;20428;-75
2023/12/23 09:05:30;;;;;;;16.65;3.15;;;;;;;8.91;100.00;100692.25;5080905;28;20039;-76
2023/12/23 09:07:55;;;;;;;16.77;3.10;;;;;;;8.77;100.00;100697.41;5065354;28;20032;-71
2023/12/23 09:10:20;;;;;;;17.90;3.58;;;;;;;8.72;100.00;100720.19;5081996;28;20410;-76
2023/12/23 09:12:46;;;;;;;16.08;3.30;;;;;;;8.68;100.00;100700.84;5082023;28;20041;-76
2023/12/23 09:15:11;;;;;;;20.13;3.60;;;;;;;8.63;100.00;100728.00;5083027;28;20039;-77
2023/12/23 09:17:36;;;;;;;17.02;3.28;;;;;;;8.62;100.00;100724.50;5080949;28;20032;-76
2023/12/23 09:20:06;;;;;;;17.08;3.13;;;;;;;8.69;100.00;100712.25;5084000;28;20363;-77
2023/12/23 09:22:31;;;;;;;16.30;3.40;;;;;;;8.53;100.00;100708.56;5059264;28;20028;-77
2023/12/23 09:24:57;;;;;;;17.02;3.40;;;;;;;8.49;100.00;100717.31;5085261;28;20036;-75
2023/12/23 09:27:22;;;;;;;14.90;3.00;;;;;;;8.54;100.00;100697.19;5086708;28;20475;-75
2023/12/23 09:29:47;;;;;;;14.63;2.85;;;;;;;8.69;100.00;100717.53;5085502;28;20024;-75
2023/12/23 09:32:13;;;;;;;18.45;3.20;;;;;;;8.67;100.00;100725.41;5080352;28;20047;-74
2023/12/23 09:34:38;;;;;;;17.73;3.40;;;;;;;8.80;100.00;100718.53;5086724;28;20038;-73
2023/12/23 09:37:04;;;;;;;15.68;3.28;;;;;;;8.87;100.00;100679.94;5085688;28;20062;-68
2023/12/23 09:39:29;;;;;;;17.38;3.15;;;;;;;8.90;100.00;100716.88;5067089;28;20036;-69
2023/12/23 09:41:55;;;;;;;16.17;3.08;;;;;;;8.88;100.00;100718.59;5067430;28;20108;-69
2023/12/23 09:44:21;;;;;;;20.10;3.60;;;;;;;8.94;100.00;100725.66;5068876;28;20032;-73
2023/12/23 09:46:47;;;;;;;19.17;3.53;;;;;;;8.97;100.00;100731.88;5083802;28;20033;-70
2023/12/23 09:49:12;;;;;;;18.23;3.00;;;;;;;9.06;100.00;100713.47;5085255;28;20029;-73
2023/12/23 09:51:38;;;;;;;16.38;3.13;;;;;;;9.20;100.00;100704.78;5087364;28;20406;-76
2023/12/23 09:54:05;;;;;;;16.58;2.90;;;;;;;9.28;100.00;100695.19;5085679;28;20039;-72
2023/12/23 09:56:31;;;;;;;18.83;3.03;;;;;;;9.26;100.00;100683.72;5084284;28;20070;-72
2023/12/23 09:58:57;;;;;;;15.52;3.13;;;;;;;9.27;100.00;100680.22;5086301;28;20471;-75
2023/12/23 10:01:22;;;;;;;11.68;2.70;;;;;;;9.35;100.00;100694.38;5085527;28;20031;-74
2023/12/23 10:03:49;;;;;;;16.98;3.10;;;;;;;9.27;100.00;100735.63;5084913;28;20107;-74
2023/12/23 10:06:15;;;;;;;16.08;2.90;;;;;;;9.36;100.00;100726.91;5086751;28;20386;-74
2023/12/23 10:08:41;;;;;;;18.67;3.10;;;;;;;9.24;100.00;100698.69;5083821;28;20053;-73
2023/12/23 10:11:07;;;;;;;19.08;3.15;;;;;;;9.31;100.00;100726.00;5087003;28;20443;-74
2023/12/23 10:13:32;;;;;;;19.73;3.20;;;;;;;9.33;100.00;100747.97;5084143;28;20047;-71
2023/12/23 10:15:57;;;;;;;19.02;3.30;;;;;;;9.34;100.00;100732.16;5086150;28;20388;-70
2023/12/23 10:18:24;;;;;;;17.88;3.13;;;;;;;9.33;100.00;100727.75;5085097;28;20032;-71
2023/12/23 10:20:49;;;;;;;17.23;3.10;;;;;;;9.33;100.00;100738.31;5084803;28;20025;-69
2023/12/23 10:23:15;;;;;;;15.73;3.08;;;;;;;9.41;100.00;100731.34;5086195;28;20081;-70
2023/12/23 10:25:40;;;;;;;16.70;3.25;;;;;;;9.38;100.00;100726.03;5065483;28;20032;-71
2023/12/23 10:28:07;;;;;;;17.10;2.92;;;;;;;9.49;100.00;100723.47;5086762;28;20032;-75
2023/12/23 10:30:41;;;;;;;14.82;2.97;;;;;;;9.62;100.00;100707.72;5083415;28;20442;-74
2023/12/23 10:33:08;;;;;;;17.88;3.10;;;;;;;9.53;100.00;100727.03;5082741;28;20533;-73
2023/12/23 10:35:48;;;;;;;13.48;2.80;;;;;;;9.72;100.00;100723.63;5086503;28;20123;-75
2023/12/23 10:38:22;;;;;;;17.67;3.03;;;;;;;9.72;100.00;100723.63;5083793;28;20039;-75
2023/12/23 10:40:55;;;;;;;18.92;3.35;;;;;;;9.71;100.00;100703.41;5085514;28;20103;-74
2023/12/23 10:43:21;;;;;;;15.98;2.75;;;;;;;9.70;100.00;100708.66;5084362;28;20033;-74
2023/12/23 10:45:48;;;;;;;16.08;2.85;;;;;;;9.72;100.00;100742.09;5067574;28;20398;-74
2023/12/23 10:48:16;;;;;;;17.08;2.70;;;;;;;9.80;100.00;100728.06;5083294;28;20094;-73
2023/12/23 10:50:43;;;;;;;13.85;2.72;;;;;;;9.76;100.00;100722.78;5086113;28;20023;-74
2023/12/23 10:53:12;;;;;;;13.90;2.80;;;;;;;9.82;100.00;100731.63;5082996;28;20017;-74
2023/12/23 10:55:39;;;;;;;16.52;2.80;;;;;;;9.84;100.00;100704.31;5082871;28;20103;-74
2023/12/23 10:58:08;;;;;;;14.90;2.70;;;;;;;9.83;100.00;100696.41;5086047;28;20051;-73
2023/12/23 11:00:33;;;;;;;14.95;2.83;;;;;;;9.85;100.00;100692.91;5083208;28;20065;-73
2023/12/23 11:03:00;;;;;;;16.48;2.88;;;;;;;9.85;100.00;100718.44;5085601;28;20032;-74
2023/12/23 11:05:26;;;;;;;15.65;2.97;;;;;;;9.86;100.00;100712.25;5083811;28;20028;-75
2023/12/23 11:07:55;;;;;;;14.80;2.83;;;;;;;9.88;100.00;100702.59;5084106;28;20553;-71
2023/12/23 11:10:21;;;;;;;14.55;2.53;;;;;;;9.89;100.00;100699.09;5084574;28;20047;-75